Time;durP1;ratioP1;P1;durP2;ratioP2;P2;SDS_P1;SDS_P2;PMS_P1;PMS_P2;Temp;Humidity;BMP_temperature;BMP_pressure;BME280_temperature;BME280_humidity;BME280_pressure;Samples;Min_cycle;Max_cycle;Signal;HPM_P1;HPM_P2
2023/12/18 00:02:23;;;;;;;16.50;6.20;;;;;;;;;;5087051;28;20132;-44
2023/12/18 00:04:50;;;;;;;8.23;5.65;;;;;;;;;;5086648;28;20212;-50
2023/12/18 00:07:18;;;;;;;9.70;5.45;;;;;;;;;;5086772;28;20328;-52
2023/12/18 00:09:44;;;;;;;9.18;4.88;;;;;;;;;;5086591;28;20108;-50
2023/12/18 00:12:11;;;;;;;12.85;5.18;;;;;;;;;;5086893;28;20025;-46
2023/12/18 00:14:38;;;;;;;8.43;4.72;;;;;;;;;;5086645;28;20035;-56
2023/12/18 00:17:05;;;;;;;7.13;5.63;;;;;;;;;;5085118;28;20206;-48
2023/12/18 00:19:31;;;;;;;9.55;5.00;;;;;;;;;;5086546;28;20062;-51
2023/12/18 00:21:58;;;;;;;9.10;4.93;;;;;;;;;;5086977;28;20331;-48
2023/12/18 00:24:25;;;;;;;7.82;4.85;;;;;;;;;;5086370;28;20210;-51
2023/12/18 00:26:52;;;;;;;13.88;5.65;;;;;;;;;;5086824;28;20017;-51
2023/12/18 00:29:18;;;;;;;8.07;5.47;;;;;;;;;;5086222;28;20264;-49
2023/12/18 00:31:45;;;;;;;12.30;5.35;;;;;;;;;;5086591;28;20028;-53
2023/12/18 00:34:12;;;;;;;10.50;5.70;;;;;;;;;;5086341;28;20017;-44
2023/12/18 00:36:38;;;;;;;13.13;5.53;;;;;;;;;;5086558;28;20016;-44
2023/12/18 00:39:05;;;;;;;12.57;6.15;;;;;;;;;;5086065;28;20033;-50
2023/12/18 00:41:34;;;;;;;8.73;5.38;;;;;;;;;;5086459;28;20031;-44
2023/12/18 00:44:01;;;;;;;10.02;5.53;;;;;;;;;;5086114;28;20025;-44
2023/12/18 00:46:27;;;;;;;10.35;5.15;;;;;;;;;;5086264;28;20024;-45
2023/12/18 00:48:54;;;;;;;8.10;5.03;;;;;;;;;;5086029;28;20036;-47
2023/12/18 00:51:20;;;;;;;14.77;8.10;;;;;;;;;;5102241;28;20095;-48
2023/12/18 00:53:47;;;;;;;10.15;6.70;;;;;;;;;;5102589;28;20032;-53
2023/12/18 00:56:14;;;;;;;11.82;5.93;;;;;;;;;;5097674;28;20028;-46
2023/12/18 00:58:41;;;;;;;8.77;5.63;;;;;;;;;;5105914;28;20059;-45
2023/12/18 01:01:08;;;;;;;8.70;4.68;;;;;;;;;;5105111;28;20062;-52
2023/12/18 01:03:35;;;;;;;10.48;5.18;;;;;;;;;;5105997;28;20250;-46
2023/12/18 01:06:02;;;;;;;9.82;5.03;;;;;;;;;;5098608;28;20309;-54
2023/12/18 01:08:29;;;;;;;14.63;5.72;;;;;;;;;;5092743;28;20036;-58
2023/12/18 01:10:55;;;;;;;9.07;5.13;;;;;;;;;;5100482;28;20024;-46
2023/12/18 01:13:22;;;;;;;7.63;4.65;;;;;;;;;;5105920;28;20024;-49
2023/12/18 01:15:48;;;;;;;9.50;4.65;;;;;;;;;;5105689;28;20027;-47
2023/12/18 01:18:16;;;;;;;8.63;5.00;;;;;;;;;;5105729;28;20028;-56
2023/12/18 01:20:43;;;;;;;7.20;4.45;;;;;;;;;;5101503;28;20028;-51
2023/12/18 01:23:10;;;;;;;6.28;4.38;;;;;;;;;;5101794;28;20047;-52
2023/12/18 01:25:37;;;;;;;4.85;4.05;;;;;;;;;;5085448;28;20024;-46
2023/12/18 01:28:04;;;;;;;6.75;4.00;;;;;;;;;;5085250;28;20036;-56
2023/12/18 01:30:31;;;;;;;8.68;4.00;;;;;;;;;;5085360;28;20042;-50
2023/12/18 01:32:57;;;;;;;9.55;4.38;;;;;;;;;;5097780;28;20024;-46
2023/12/18 01:35:24;;;;;;;10.27;4.43;;;;;;;;;;5105082;28;20055;-51
2023/12/18 01:37:51;;;;;;;5.78;4.28;;;;;;;;;;5105362;28;20078;-53
2023/12/18 01:40:18;;;;;;;7.00;4.20;;;;;;;;;;5098777;28;20024;-47
2023/12/18 01:42:46;;;;;;;7.63;3.97;;;;;;;;;;5084704;28;20028;-54
2023/12/18 01:45:12;;;;;;;7.50;4.55;;;;;;;;;;5088803;28;20091;-48
2023/12/18 01:47:40;;;;;;;9.52;4.47;;;;;;;;;;5091832;28;20024;-45
2023/12/18 01:50:07;;;;;;;8.95;4.05;;;;;;;;;;5084898;28;20039;-50
2023/12/18 01:52:34;;;;;;;8.93;4.60;;;;;;;;;;5084898;28;20028;-50
2023/12/18 01:55:01;;;;;;;7.00;4.60;;;;;;;;;;5084525;28;20043;-47
2023/12/18 01:57:28;;;;;;;7.57;4.53;;;;;;;;;;5084684;28;20024;-52
2023/12/18 01:59:56;;;;;;;8.35;4.72;;;;;;;;;;5084646;28;20039;-51
2023/12/18 02:02:22;;;;;;;10.57;5.32;;;;;;;;;;5086215;28;20024;-51
2023/12/18 02:04:49;;;;;;;6.97;4.55;;;;;;;;;;5125229;28;20216;-53
2023/12/18 02:07:16;;;;;;;6.22;4.43;;;;;;;;;;5125254;28;20040;-54
2023/12/18 02:09:44;;;;;;;10.43;5.13;;;;;;;;;;5124918;28;20023;-45
2023/12/18 02:12:10;;;;;;;9.80;4.50;;;;;;;;;;5124953;28;20030;-57
2023/12/18 02:14:37;;;;;;;7.70;4.50;;;;;;;;;;5106007;28;20097;-52
2023/12/18 02:17:05;;;;;;;5.97;4.45;;;;;;;;;;5105074;28;20256;-52
2023/12/18 02:19:32;;;;;;;6.22;4.20;;;;;;;;;;5104531;28;20383;-53
2023/12/18 02:21:59;;;;;;;9.82;4.30;;;;;;;;;;5105063;28;20039;-52
2023/12/18 02:24:27;;;;;;;5.32;3.80;;;;;;;;;;5100134;28;20030;-55
2023/12/18 02:26:54;;;;;;;7.50;4.07;;;;;;;;;;5095905;28;20020;-49
2023/12/18 02:29:20;;;;;;;6.32;3.55;;;;;;;;;;5104326;28;20044;-57
2023/12/18 02:31:47;;;;;;;6.40;3.63;;;;;;;;;;5112008;28;20042;-53
2023/12/18 02:34:15;;;;;;;5.32;4.03;;;;;;;;;;5124898;28;20027;-49
2023/12/18 02:36:41;;;;;;;7.20;3.67;;;;;;;;;;5124718;28;20215;-49
2023/12/18 02:39:12;;;;;;;7.43;3.45;;;;;;;;;;5124586;28;20020;-47
2023/12/18 02:41:38;;;;;;;6.55;3.72;;;;;;;;;;5125000;28;20129;-47
2023/12/18 02:44:05;;;;;;;6.25;3.67;;;;;;;;;;5124579;28;20019;-50
2023/12/18 02:46:32;;;;;;;5.95;3.72;;;;;;;;;;5124480;28;20020;-46
2023/12/18 02:48:58;;;;;;;7.38;4.00;;;;;;;;;;5124701;28;20028;-49
2023/12/18 02:51:25;;;;;;;6.95;3.92;;;;;;;;;;5125057;28;20206;-53
2023/12/18 02:53:53;;;;;;;4.82;3.40;;;;;;;;;;5124443;28;20015;-52
2023/12/18 02:56:20;;;;;;;4.90;3.47;;;;;;;;;;5124900;28;20030;-52
2023/12/18 02:58:46;;;;;;;4.95;3.60;;;;;;;;;;5124416;28;20024;-50
2023/12/18 03:01:13;;;;;;;6.15;3.53;;;;;;;;;;5124681;28;20075;-52
2023/12/18 03:03:40;;;;;;;9.85;4.10;;;;;;;;;;5124531;28;20031;-49
2023/12/18 03:06:06;;;;;;;5.03;3.95;;;;;;;;;;5124658;28;20031;-50
2023/12/18 03:08:33;;;;;;;9.02;3.80;;;;;;;;;;5124288;28;20257;-52
2023/12/18 03:11:00;;;;;;;81.32;6.10;;;;;;;;;;5109803;28;20347;-51
2023/12/18 03:13:26;;;;;;;5.72;3.45;;;;;;;;;;5092549;28;20032;-51
2023/12/18 03:15:53;;;;;;;4.32;3.42;;;;;;;;;;5083757;28;20304;-48
2023/12/18 03:18:20;;;;;;;4.30;3.33;;;;;;;;;;5083827;28;20260;-53
2023/12/18 03:20:46;;;;;;;5.07;3.45;;;;;;;;;;5083881;28;20320;-51
2023/12/18 03:23:13;;;;;;;6.97;3.55;;;;;;;;;;5083505;28;20028;-50
2023/12/18 03:25:40;;;;;;;8.45;3.65;;;;;;;;;;5086908;28;20368;-46
2023/12/18 03:28:06;;;;;;;8.30;3.78;;;;;;;;;;5087521;28;20044;-47
2023/12/18 03:30:33;;;;;;;5.22;3.58;;;;;;;;;;5087465;28;20069;-49
2023/12/18 03:32:59;;;;;;;8.27;3.60;;;;;;;;;;5087625;28;20030;-48
2023/12/18 03:35:26;;;;;;;6.95;3.78;;;;;;;;;;5087482;28;20092;-52
2023/12/18 03:37:53;;;;;;;24.88;4.35;;;;;;;;;;5087391;28;20069;-52
2023/12/18 03:40:19;;;;;;;6.05;3.88;;;;;;;;;;5087362;28;20025;-54
2023/12/18 03:42:46;;;;;;;8.23;3.88;;;;;;;;;;5087387;28;20040;-53
2023/12/18 03:45:13;;;;;;;9.57;4.38;;;;;;;;;;5087279;28;20016;-49
2023/12/18 03:47:39;;;;;;;6.38;4.00;;;;;;;;;;5087151;28;20395;-57
2023/12/18 03:50:06;;;;;;;5.22;3.88;;;;;;;;;;5087199;28;20040;-54
2023/12/18 03:52:33;;;;;;;9.52;3.92;;;;;;;;;;5087158;28;20028;-46
2023/12/18 03:54:59;;;;;;;9.45;3.70;;;;;;;;;;5086925;28;20031;-51
2023/12/18 03:57:26;;;;;;;6.57;3.67;;;;;;;;;;5087083;28;20037;-49
2023/12/18 03:59:53;;;;;;;8.90;3.90;;;;;;;;;;5086915;28;20024;-48
2023/12/18 04:02:20;;;;;;;8.80;4.22;;;;;;;;;;5086787;28;20093;-56
2023/12/18 04:04:46;;;;;;;6.55;3.90;;;;;;;;;;5086785;28;20032;-49
2023/12/18 04:07:14;;;;;;;5.95;3.95;;;;;;;;;;5086890;28;20025;-51
2023/12/18 04:09:42;;;;;;;6.00;4.03;;;;;;;;;;5086529;28;20028;-56
2023/12/18 04:12:08;;;;;;;8.25;4.57;;;;;;;;;;5087213;28;20096;-54
2023/12/18 04:14:35;;;;;;;7.25;4.30;;;;;;;;;;5086751;28;20024;-50
2023/12/18 04:17:02;;;;;;;8.00;4.72;;;;;;;;;;5086998;28;20021;-49
2023/12/18 04:19:28;;;;;;;8.88;4.50;;;;;;;;;;5086716;28;20126;-52
2023/12/18 04:21:55;;;;;;;9.45;4.18;;;;;;;;;;5087074;28;20028;-44
2023/12/18 04:24:21;;;;;;;6.55;3.80;;;;;;;;;;5086437;28;20028;-49
2023/12/18 04:26:48;;;;;;;9.52;3.80;;;;;;;;;;5086868;28;20043;-54
2023/12/18 04:29:15;;;;;;;5.60;3.85;;;;;;;;;;5093372;28;20040;-55
2023/12/18 04:31:42;;;;;;;7.07;3.65;;;;;;;;;;5106381;28;20024;-50
2023/12/18 04:34:08;;;;;;;6.35;3.92;;;;;;;;;;5106524;28;20039;-55
2023/12/18 04:36:38;;;;;;;7.85;4.03;;;;;;;;;;5106840;28;20210;-51
2023/12/18 04:39:05;;;;;;;7.93;4.00;;;;;;;;;;5106523;28;20327;-53
2023/12/18 04:41:32;;;;;;;6.22;3.75;;;;;;;;;;5106966;28;20304;-55
2023/12/18 04:43:58;;;;;;;8.20;3.85;;;;;;;;;;5106493;28;20040;-50
2023/12/18 04:46:26;;;;;;;5.40;3.42;;;;;;;;;;5097694;28;20024;-50
2023/12/18 04:48:53;;;;;;;5.15;4.15;;;;;;;;;;5105681;28;20028;-52
2023/12/18 04:51:20;;;;;;;5.90;3.83;;;;;;;;;;5106653;28;20040;-54
2023/12/18 04:53:46;;;;;;;5.88;3.35;;;;;;;;;;5106177;28;20115;-58
2023/12/18 04:56:13;;;;;;;7.43;3.78;;;;;;;;;;5106582;28;20204;-55
2023/12/18 04:58:40;;;;;;;4.95;3.63;;;;;;;;;;5106197;28;20024;-55
2023/12/18 05:01:08;;;;;;;5.22;3.70;;;;;;;;;;5106203;28;20140;-52
2023/12/18 05:03:34;;;;;;;6.70;4.03;;;;;;;;;;5106326;28;20217;-53
2023/12/18 05:06:02;;;;;;;5.82;3.83;;;;;;;;;;5106345;28;20079;-51
2023/12/18 05:08:29;;;;;;;5.78;3.70;;;;;;;;;;5105846;28;20062;-49
2023/12/18 05:10:56;;;;;;;4.95;3.70;;;;;;;;;;5106177;28;20376;-59
2023/12/18 05:13:22;;;;;;;6.20;3.75;;;;;;;;;;5106009;28;20090;-51
2023/12/18 05:15:51;;;;;;;5.15;4.10;;;;;;;;;;5105653;28;20043;-53
2023/12/18 05:18:17;;;;;;;6.15;3.63;;;;;;;;;;5105843;28;20032;-53
2023/12/18 05:20:44;;;;;;;5.00;3.45;;;;;;;;;;5105918;28;20024;-53
2023/12/18 05:23:11;;;;;;;5.25;3.85;;;;;;;;;;5105636;28;20038;-47
2023/12/18 05:25:37;;;;;;;7.45;3.58;;;;;;;;;;5105724;28;20036;-53
2023/12/18 05:28:04;;;;;;;4.85;3.50;;;;;;;;;;5105665;28;20061;-47
2023/12/18 05:30:30;;;;;;;4.60;3.58;;;;;;;;;;5105464;28;20342;-53
2023/12/18 05:32:57;;;;;;;4.95;3.50;;;;;;;;;;5105617;28;20050;-52
2023/12/18 05:35:24;;;;;;;7.18;3.45;;;;;;;;;;5105662;28;20016;-50
2023/12/18 05:37:50;;;;;;;8.70;3.50;;;;;;;;;;5105683;28;20024;-50
2023/12/18 05:40:17;;;;;;;5.45;3.20;;;;;;;;;;5105363;28;20099;-52
2023/12/18 05:42:44;;;;;;;6.10;3.72;;;;;;;;;;5105600;28;20051;-48
2023/12/18 05:45:10;;;;;;;4.05;3.47;;;;;;;;;;5105336;28;20032;-50
2023/12/18 05:47:37;;;;;;;5.63;3.47;;;;;;;;;;5095792;28;20228;-48
2023/12/18 05:50:04;;;;;;;5.82;3.50;;;;;;;;;;5102122;28;20012;-50
2023/12/18 05:52:30;;;;;;;4.80;3.63;;;;;;;;;;5105210;28;20027;-47
2023/12/18 05:54:57;;;;;;;6.78;3.70;;;;;;;;;;5104951;28;20039;-45
2023/12/18 05:57:24;;;;;;;4.93;3.50;;;;;;;;;;5105181;28;20024;-53
2023/12/18 05:59:50;;;;;;;9.05;3.78;;;;;;;;;;5105023;28;20287;-51
2023/12/18 06:02:17;;;;;;;4.25;3.60;;;;;;;;;;5104823;28;20091;-46
2023/12/18 06:04:44;;;;;;;5.70;3.80;;;;;;;;;;5104944;28;20023;-53
2023/12/18 06:07:11;;;;;;;5.60;3.58;;;;;;;;;;5105151;28;20028;-48
2023/12/18 06:09:37;;;;;;;8.98;3.80;;;;;;;;;;5104679;28;20275;-51
2023/12/18 06:12:04;;;;;;;6.13;3.60;;;;;;;;;;5105336;28;20016;-51
2023/12/18 06:14:31;;;;;;;4.80;3.92;;;;;;;;;;5104639;28;20354;-55
2023/12/18 06:16:58;;;;;;;6.82;3.80;;;;;;;;;;5104960;28;20058;-51
2023/12/18 06:19:24;;;;;;;4.85;3.83;;;;;;;;;;5120643;28;20031;-53
2023/12/18 06:21:51;;;;;;;4.15;3.72;;;;;;;;;;5125519;28;20095;-54
2023/12/18 06:24:17;;;;;;;7.50;4.20;;;;;;;;;;5124873;28;20039;-60
2023/12/18 06:26:44;;;;;;;6.18;3.65;;;;;;;;;;5125302;28;20039;-60
2023/12/18 06:29:11;;;;;;;5.55;3.95;;;;;;;;;;5124795;28;20044;-46
2023/12/18 06:31:37;;;;;;;6.28;3.85;;;;;;;;;;5125179;28;20032;-46
2023/12/18 06:34:04;;;;;;;7.32;3.80;;;;;;;;;;5124942;28;20016;-51
2023/12/18 06:36:31;;;;;;;4.72;3.70;;;;;;;;;;5125193;28;20255;-56
2023/12/18 06:38:57;;;;;;;7.88;3.80;;;;;;;;;;5124672;28;20331;-47
2023/12/18 06:41:24;;;;;;;6.07;4.00;;;;;;;;;;5125094;28;20027;-52
2023/12/18 06:43:52;;;;;;;4.40;3.80;;;;;;;;;;5124632;28;20030;-58
2023/12/18 06:46:18;;;;;;;5.72;4.00;;;;;;;;;;5124786;28;20027;-52
2023/12/18 06:48:45;;;;;;;5.78;3.78;;;;;;;;;;5124637;28;20094;-52
2023/12/18 06:51:11;;;;;;;6.28;3.97;;;;;;;;;;5124885;28;20023;-49
2023/12/18 06:53:38;;;;;;;5.53;4.03;;;;;;;;;;5124442;28;20091;-49
2023/12/18 06:56:05;;;;;;;4.53;3.53;;;;;;;;;;5124771;28;20098;-58
2023/12/18 06:58:32;;;;;;;5.25;3.60;;;;;;;;;;5123995;28;20292;-49
2023/12/18 07:00:58;;;;;;;5.85;3.95;;;;;;;;;;5124158;28;20019;-56
2023/12/18 07:03:25;;;;;;;5.85;3.75;;;;;;;;;;5124307;28;20024;-50
2023/12/18 07:05:52;;;;;;;7.97;4.20;;;;;;;;;;5124677;28;20045;-51
2023/12/18 07:08:18;;;;;;;9.20;4.18;;;;;;;;;;5124481;28;20044;-47
2023/12/18 07:10:45;;;;;;;12.18;4.30;;;;;;;;;;5124364;28;20019;-53
2023/12/18 07:13:12;;;;;;;7.00;4.13;;;;;;;;;;5124457;28;20028;-47
2023/12/18 07:15:38;;;;;;;6.20;4.38;;;;;;;;;;5124540;28;20055;-51
2023/12/18 07:18:07;;;;;;;9.18;4.75;;;;;;;;;;5124221;28;20039;-53
2023/12/18 07:20:34;;;;;;;4.72;3.90;;;;;;;;;;5124455;28;20034;-52
2023/12/18 07:23:00;;;;;;;7.80;4.10;;;;;;;;;;5124347;28;20201;-54
2023/12/18 07:25:27;;;;;;;6.10;4.40;;;;;;;;;;5124231;28;20126;-47
2023/12/18 07:27:54;;;;;;;7.72;4.28;;;;;;;;;;5124242;28;20050;-52
2023/12/18 07:30:20;;;;;;;8.75;4.00;;;;;;;;;;5124085;28;20051;-51
2023/12/18 07:32:47;;;;;;;7.05;4.35;;;;;;;;;;5124075;28;20015;-46
2023/12/18 07:35:14;;;;;;;9.93;4.57;;;;;;;;;;5124317;28;20031;-51
2023/12/18 07:37:40;;;;;;;7.35;5.18;;;;;;;;;;5124148;28;20240;-50
2023/12/18 07:40:09;;;;;;;7.53;4.78;;;;;;;;;;5124065;28;20074;-51
2023/12/18 07:42:35;;;;;;;7.82;4.65;;;;;;;;;;5124176;28;20043;-55
2023/12/18 07:45:02;;;;;;;8.27;4.88;;;;;;;;;;5124121;28;20031;-53
2023/12/18 07:47:29;;;;;;;8.35;4.82;;;;;;;;;;5123970;28;20027;-50
2023/12/18 07:49:55;;;;;;;6.13;4.35;;;;;;;;;;5124061;28;20050;-51
2023/12/18 07:52:22;;;;;;;10.20;4.32;;;;;;;;;;5124139;28;20051;-48
2023/12/18 07:54:48;;;;;;;6.90;4.57;;;;;;;;;;5123776;28;20012;-56
2023/12/18 07:57:15;;;;;;;7.65;3.92;;;;;;;;;;5124041;28;20028;-55
2023/12/18 07:59:42;;;;;;;7.53;4.63;;;;;;;;;;5123984;28;20035;-55
2023/12/18 08:02:09;;;;;;;6.43;4.20;;;;;;;;;;5124272;28;20019;-49
2023/12/18 08:04:36;;;;;;;9.27;4.53;;;;;;;;;;5123825;28;20027;-51
2023/12/18 08:07:03;;;;;;;8.98;4.35;;;;;;;;;;5124418;28;20032;-49
2023/12/18 08:09:30;;;;;;;5.63;4.25;;;;;;;;;;5123674;28;20047;-54
2023/12/18 08:11:57;;;;;;;9.55;4.10;;;;;;;;;;5127696;28;20065;-52
2023/12/18 08:14:24;;;;;;;7.88;3.97;;;;;;;;;;5127468;28;20024;-52
2023/12/18 08:16:52;;;;;;;8.45;4.07;;;;;;;;;;5127783;28;20023;-48
2023/12/18 08:19:19;;;;;;;10.65;4.50;;;;;;;;;;5127379;28;20043;-56
2023/12/18 08:21:45;;;;;;;7.80;4.78;;;;;;;;;;5108713;28;20099;-49
2023/12/18 08:24:12;;;;;;;7.65;4.18;;;;;;;;;;5106733;28;20024;-48
2023/12/18 08:26:39;;;;;;;6.70;4.07;;;;;;;;;;5107168;28;20087;-47
2023/12/18 08:29:05;;;;;;;5.30;3.78;;;;;;;;;;5106640;28;20270;-50
2023/12/18 08:31:32;;;;;;;5.43;4.28;;;;;;;;;;5106966;28;20024;-50
2023/12/18 08:33:58;;;;;;;6.72;4.18;;;;;;;;;;5106754;28;20426;-49
2023/12/18 08:36:25;;;;;;;5.78;3.72;;;;;;;;;;5106965;28;20020;-51
2023/12/18 08:38:52;;;;;;;7.25;3.90;;;;;;;;;;5106693;28;20023;-52
2023/12/18 08:41:18;;;;;;;8.75;3.92;;;;;;;;;;5106807;28;20063;-52
2023/12/18 08:43:45;;;;;;;8.43;4.03;;;;;;;;;;5106093;28;20044;-51
2023/12/18 08:46:12;;;;;;;6.53;4.03;;;;;;;;;;5106941;28;20016;-51
2023/12/18 08:48:38;;;;;;;5.22;3.92;;;;;;;;;;5106204;28;20032;-56
2023/12/18 08:51:05;;;;;;;8.98;3.72;;;;;;;;;;5106470;28;20036;-52
2023/12/18 08:53:32;;;;;;;7.38;3.63;;;;;;;;;;5106232;28;20024;-52
2023/12/18 08:56:00;;;;;;;6.65;3.70;;;;;;;;;;5106449;28;20016;-52
2023/12/18 08:58:27;;;;;;;6.75;3.65;;;;;;;;;;5106230;28;20043;-52
2023/12/18 09:00:53;;;;;;;5.88;3.78;;;;;;;;;;5106449;28;20046;-51
2023/12/18 09:03:20;;;;;;;5.63;3.70;;;;;;;;;;5105943;28;20035;-51
2023/12/18 09:05:47;;;;;;;7.07;4.20;;;;;;;;;;5106107;28;20027;-52
2023/12/18 09:08:14;;;;;;;6.68;3.80;;;;;;;;;;5106085;28;20028;-52
2023/12/18 09:10:42;;;;;;;6.80;4.30;;;;;;;;;;5105986;28;20085;-53
2023/12/18 09:13:09;;;;;;;5.55;3.70;;;;;;;;;;5106320;28;20039;-51
2023/12/18 09:15:39;;;;;;;7.50;3.70;;;;;;;;;;5105927;28;20020;-51
2023/12/18 09:18:06;;;;;;;4.15;3.40;;;;;;;;;;5105071;28;20058;-58
2023/12/18 09:20:32;;;;;;;8.18;3.60;;;;;;;;;;5105909;28;20031;-53
2023/12/18 09:22:59;;;;;;;7.00;4.10;;;;;;;;;;5104820;28;20053;-51
2023/12/18 09:25:26;;;;;;;7.82;4.10;;;;;;;;;;5105658;28;20209;-48
2023/12/18 09:27:52;;;;;;;5.75;3.90;;;;;;;;;;5105664;28;20040;-51
2023/12/18 09:30:19;;;;;;;6.93;3.90;;;;;;;;;;5105351;28;20050;-50
2023/12/18 09:32:46;;;;;;;5.95;3.85;;;;;;;;;;5105442;28;20039;-57
2023/12/18 09:35:12;;;;;;;7.25;3.80;;;;;;;;;;5105659;28;20032;-48
2023/12/18 09:37:39;;;;;;;9.13;4.18;;;;;;;;;;5105413;28;20020;-46
2023/12/18 09:40:07;;;;;;;9.13;4.10;;;;;;;;;;5105449;28;20027;-50
2023/12/18 09:42:34;;;;;;;5.95;3.90;;;;;;;;;;5105299;28;20068;-50
2023/12/18 09:45:03;;;;;;;6.32;3.97;;;;;;;;;;5105239;28;20308;-50
2023/12/18 09:47:29;;;;;;;7.32;4.00;;;;;;;;;;5105096;28;20324;-44
2023/12/18 09:49:58;;;;;;;6.45;3.65;;;;;;;;;;5105077;28;20308;-52
2023/12/18 09:52:25;;;;;;;5.28;3.72;;;;;;;;;;5105267;28;20210;-45
2023/12/18 09:54:52;;;;;;;6.40;3.80;;;;;;;;;;5104973;28;20024;-52
2023/12/18 09:57:19;;;;;;;6.18;4.00;;;;;;;;;;5105152;28;20036;-47
2023/12/18 09:59:46;;;;;;;6.45;3.80;;;;;;;;;;5104880;28;20335;-52
2023/12/18 10:02:12;;;;;;;8.13;3.65;;;;;;;;;;5104831;28;20062;-47
2023/12/18 10:04:43;;;;;;;7.20;3.92;;;;;;;;;;5105002;28;20036;-52
2023/12/18 10:07:09;;;;;;;6.47;3.95;;;;;;;;;;5104980;28;20228;-49
2023/12/18 10:09:36;;;;;;;11.90;4.20;;;;;;;;;;5104617;28;20042;-52
2023/12/18 10:12:03;;;;;;;9.65;3.95;;;;;;;;;;5105267;28;20016;-49
2023/12/18 10:14:30;;;;;;;7.32;3.53;;;;;;;;;;5104838;28;20031;-49
2023/12/18 10:16:57;;;;;;;5.72;4.07;;;;;;;;;;5104574;28;20023;-52
2023/12/18 10:19:27;;;;;;;5.25;3.90;;;;;;;;;;5104801;28;20113;-49
2023/12/18 10:21:54;;;;;;;6.53;3.67;;;;;;;;;;5104988;28;20016;-48
2023/12/18 10:24:21;;;;;;;8.25;3.92;;;;;;;;;;5104482;28;20327;-53
2023/12/18 10:26:48;;;;;;;9.57;3.70;;;;;;;;;;5104860;28;20315;-48
2023/12/18 10:29:14;;;;;;;11.88;4.60;;;;;;;;;;5104419;28;20055;-55
2023/12/18 10:31:42;;;;;;;8.90;4.90;;;;;;;;;;5104773;28;20220;-51
2023/12/18 10:34:09;;;;;;;9.70;4.40;;;;;;;;;;5104415;28;20052;-48
2023/12/18 10:36:36;;;;;;;7.25;4.00;;;;;;;;;;5104770;28;20047;-50
2023/12/18 10:39:09;;;;;;;8.30;4.38;;;;;;;;;;5104313;28;20024;-49
2023/12/18 10:41:42;;;;;;;12.45;3.92;;;;;;;;;;5104783;28;20024;-46
2023/12/18 10:44:10;;;;;;;10.18;4.15;;;;;;;;;;5104297;28;20069;-54
2023/12/18 10:46:37;;;;;;;11.05;4.57;;;;;;;;;;5104610;28;20020;-47
2023/12/18 10:49:04;;;;;;;7.53;4.43;;;;;;;;;;5104329;28;20020;-53
2023/12/18 10:51:33;;;;;;;9.27;4.05;;;;;;;;;;5104386;28;20181;-51
2023/12/18 10:54:00;;;;;;;18.95;5.00;;;;;;;;;;5104147;28;20062;-49
2023/12/18 10:56:28;;;;;;;10.85;4.25;;;;;;;;;;5104461;28;20088;-48
2023/12/18 10:58:56;;;;;;;12.13;4.63;;;;;;;;;;5098635;28;20021;-54
2023/12/18 11:01:24;;;;;;;15.43;4.47;;;;;;;;;;5085990;28;20103;-47
2023/12/18 11:03:51;;;;;;;13.35;5.18;;;;;;;;;;5090693;28;20020;-51
2023/12/18 11:06:18;;;;;;;10.07;4.30;;;;;;;;;;5099858;28;20059;-46
2023/12/18 11:08:45;;;;;;;9.93;4.20;;;;;;;;;;5094784;28;20078;-49
2023/12/18 11:11:13;;;;;;;12.68;4.20;;;;;;;;;;5094080;28;20025;-54
2023/12/18 11:13:46;;;;;;;11.13;4.53;;;;;;;;;;5094719;28;20312;-46
2023/12/18 11:16:12;;;;;;;11.65;3.85;;;;;;;;;;5087352;28;20032;-50
2023/12/18 11:18:46;;;;;;;13.40;4.68;;;;;;;;;;5083812;28;20024;-51
2023/12/18 11:21:12;;;;;;;15.18;4.70;;;;;;;;;;5084085;28;20032;-44
2023/12/18 11:23:42;;;;;;;8.88;4.70;;;;;;;;;;5084112;28;20099;-53
2023/12/18 11:26:13;;;;;;;10.80;4.07;;;;;;;;;;5083933;28;20020;-53
2023/12/18 11:28:41;;;;;;;7.00;4.10;;;;;;;;;;5084918;28;20055;-59
2023/12/18 11:31:10;;;;;;;7.35;4.32;;;;;;;;;;5083850;28;20301;-51
2023/12/18 11:33:36;;;;;;;9.52;4.68;;;;;;;;;;5083391;28;20024;-50
2023/12/18 11:36:04;;;;;;;27.58;5.35;;;;;;;;;;5086045;28;20529;-51
2023/12/18 11:38:33;;;;;;;17.25;5.13;;;;;;;;;;5082590;28;20074;-55
2023/12/18 11:41:00;;;;;;;18.60;4.40;;;;;;;;;;5083472;28;20051;-54
2023/12/18 11:43:37;;;;;;;17.35;4.80;;;;;;;;;;5083376;28;20312;-45
2023/12/18 11:46:07;;;;;;;10.85;4.90;;;;;;;;;;5085690;28;20332;-49
2023/12/18 11:48:34;;;;;;;12.20;5.07;;;;;;;;;;5086405;28;20044;-54
2023/12/18 11:51:05;;;;;;;12.43;5.40;;;;;;;;;;5086961;28;20082;-52
2023/12/18 11:53:35;;;;;;;14.48;5.88;;;;;;;;;;5087149;28;20032;-53
2023/12/18 11:56:07;;;;;;;11.50;4.90;;;;;;;;;;5087262;28;20320;-46
2023/12/18 11:58:36;;;;;;;14.05;4.70;;;;;;;;;;5086984;28;20082;-46
2023/12/18 12:01:03;;;;;;;15.18;4.60;;;;;;;;;;5086695;28;20368;-52
2023/12/18 12:03:32;;;;;;;17.30;5.18;;;;;;;;;;5086909;28;20218;-45
2023/12/18 12:06:00;;;;;;;16.25;5.78;;;;;;;;;;5087085;28;20028;-45
2023/12/18 12:08:27;;;;;;;11.38;4.85;;;;;;;;;;5086739;28;20031;-54
2023/12/18 12:10:56;;;;;;;13.45;5.50;;;;;;;;;;5086916;28;20028;-57
2023/12/18 12:13:24;;;;;;;14.27;5.32;;;;;;;;;;5086679;28;20021;-46
2023/12/18 12:15:53;;;;;;;15.82;5.40;;;;;;;;;;5086271;28;20075;-46
2023/12/18 12:18:19;;;;;;;13.23;5.47;;;;;;;;;;5086619;28;20343;-47
2023/12/18 12:20:46;;;;;;;16.70;5.85;;;;;;;;;;5086695;28;20031;-45
2023/12/18 12:23:13;;;;;;;15.55;6.18;;;;;;;;;;5086440;28;20020;-50
2023/12/18 12:25:39;;;;;;;16.73;5.60;;;;;;;;;;5086519;28;20028;-49
2023/12/18 12:28:06;;;;;;;14.15;5.72;;;;;;;;;;5086691;28;20051;-52
2023/12/18 12:30:35;;;;;;;14.63;5.60;;;;;;;;;;5086318;28;20031;-49
2023/12/18 12:33:05;;;;;;;8.38;5.07;;;;;;;;;;5086448;28;20028;-49
2023/12/18 12:35:33;;;;;;;14.18;5.03;;;;;;;;;;5086491;28;20076;-48
2023/12/18 12:38:03;;;;;;;5.25;4.47;;;;;;;;;;5086161;28;20024;-54
2023/12/18 12:40:46;;;;;;;10.48;4.78;;;;;;;;;;5086385;28;20304;-61
2023/12/18 12:43:14;;;;;;;9.73;5.03;;;;;;;;;;5086297;28;20035;-55
2023/12/18 12:45:44;;;;;;;8.50;4.82;;;;;;;;;;5086097;28;20070;-56
2023/12/18 12:48:16;;;;;;;8.25;4.90;;;;;;;;;;5086156;28;20085;-54
2023/12/18 12:50:44;;;;;;;10.60;4.80;;;;;;;;;;5086057;28;20366;-58
2023/12/18 12:53:10;;;;;;;5.95;4.60;;;;;;;;;;5085991;28;20135;-53
2023/12/18 12:55:37;;;;;;;7.22;4.32;;;;;;;;;;5086032;28;20021;-53
2023/12/18 12:58:04;;;;;;;9.55;4.85;;;;;;;;;;5085782;28;20051;-55
2023/12/18 13:00:31;;;;;;;7.43;4.55;;;;;;;;;;5085853;28;20082;-56
2023/12/18 13:02:57;;;;;;;8.25;4.63;;;;;;;;;;5085760;28;20025;-60
2023/12/18 13:05:27;;;;;;;6.57;4.72;;;;;;;;;;5085799;28;20327;-56
2023/12/18 13:07:55;;;;;;;9.00;4.60;;;;;;;;;;5085646;28;20043;-56
2023/12/18 13:10:25;;;;;;;7.22;4.75;;;;;;;;;;5085720;28;20058;-57
2023/12/18 13:12:53;;;;;;;7.20;4.80;;;;;;;;;;5085879;28;20033;-54
2023/12/18 13:15:20;;;;;;;7.90;4.55;;;;;;;;;;5085597;28;20088;-55
2023/12/18 13:17:46;;;;;;;8.88;4.80;;;;;;;;;;5085708;28;20355;-53
2023/12/18 13:20:14;;;;;;;9.75;5.00;;;;;;;;;;5096473;28;20078;-57
2023/12/18 13:22:40;;;;;;;6.43;4.53;;;;;;;;;;5105100;28;20115;-43
2023/12/18 13:25:07;;;;;;;13.38;5.57;;;;;;;;;;5103552;28;20035;-50
2023/12/18 13:27:34;;;;;;;7.78;5.22;;;;;;;;;;5105457;28;20019;-44
2023/12/18 13:30:01;;;;;;;11.35;5.20;;;;;;;;;;5101334;28;20032;-51
2023/12/18 13:32:28;;;;;;;9.90;5.15;;;;;;;;;;5102226;28;20031;-51
2023/12/18 13:34:56;;;;;;;14.95;5.53;;;;;;;;;;5105286;28;20026;-49
2023/12/18 13:37:23;;;;;;;19.05;6.05;;;;;;;;;;5103114;28;20028;-48
2023/12/18 13:39:50;;;;;;;8.63;5.00;;;;;;;;;;5099966;28;20018;-52
2023/12/18 13:42:17;;;;;;;10.38;5.13;;;;;;;;;;5088225;28;20082;-52
2023/12/18 13:44:44;;;;;;;11.75;5.00;;;;;;;;;;5093666;28;20069;-44
2023/12/18 13:47:10;;;;;;;7.10;4.95;;;;;;;;;;5095824;28;20024;-49
2023/12/18 13:49:37;;;;;;;11.30;5.35;;;;;;;;;;5093857;28;20321;-51
2023/12/18 13:52:04;;;;;;;16.83;5.50;;;;;;;;;;5094462;28;20027;-51
2023/12/18 13:54:30;;;;;;;22.50;6.05;;;;;;;;;;5095524;28;20328;-49
2023/12/18 13:56:57;;;;;;;20.00;5.85;;;;;;;;;;5094051;28;20029;-51
2023/12/18 13:59:25;;;;;;;10.40;5.63;;;;;;;;;;5093403;28;20080;-52
2023/12/18 14:01:51;;;;;;;22.50;5.97;;;;;;;;;;5095957;28;20054;-55
2023/12/18 14:04:19;;;;;;;12.95;5.35;;;;;;;;;;5094859;28;20025;-57
2023/12/18 14:06:46;;;;;;;13.55;6.10;;;;;;;;;;5084851;28;20027;-48
2023/12/18 14:09:12;;;;;;;16.10;10.00;;;;;;;;;;5096648;28;20024;-51
2023/12/18 14:11:42;;;;;;;17.45;9.38;;;;;;;;;;5103824;28;20083;-58
2023/12/18 14:14:08;;;;;;;10.95;7.18;;;;;;;;;;5104006;28;20028;-48
2023/12/18 14:16:35;;;;;;;12.85;7.25;;;;;;;;;;5100072;28;20016;-46
2023/12/18 14:19:02;;;;;;;7.85;6.22;;;;;;;;;;5095870;28;20352;-46
2023/12/18 14:21:31;;;;;;;13.30;6.57;;;;;;;;;;5102533;28;20032;-53
2023/12/18 14:23:58;;;;;;;9.52;5.40;;;;;;;;;;5101146;28;20268;-49
2023/12/18 14:26:25;;;;;;;6.80;5.90;;;;;;;;;;5096226;28;20024;-47
2023/12/18 14:28:52;;;;;;;9.23;5.60;;;;;;;;;;5094744;28;20247;-43
2023/12/18 14:31:19;;;;;;;6.82;4.97;;;;;;;;;;5096090;28;20035;-50
2023/12/18 14:33:47;;;;;;;8.52;5.57;;;;;;;;;;5096733;28;20062;-45
2023/12/18 14:36:13;;;;;;;7.10;4.75;;;;;;;;;;5097737;28;20132;-43
2023/12/18 14:38:40;;;;;;;8.18;4.90;;;;;;;;;;5096554;28;20024;-52
2023/12/18 14:41:07;;;;;;;7.75;4.80;;;;;;;;;;5097358;28;20027;-44